sensor_id;sensor_type;location;lat;lon;timestamp;pressure;altitude;pressure_sealevel;temperature;humidity
70046;BME280;57385;41.832;23.494;2022-11-20T00:00:23;90620.22;;;13.63;78.55
70046;BME280;57385;41.832;23.494;2022-11-20T00:01:47;90610.44;;;13.66;78.67
70046;BME280;57385;41.832;23.494;2022-11-20T00:02:25;90613.25;;;13.64;78.58
70046;BME280;57385;41.832;23.494;2022-11-20T00:03:03;90616.09;;;13.62;78.92
70046;BME280;57385;41.832;23.494;2022-11-20T00:03:41;90615.84;;;13.64;78.67
70046;BME280;57385;41.832;23.494;2022-11-20T00:04:20;90613.00;;;13.66;78.06
70046;BME280;57385;41.832;23.494;2022-11-20T00:04:58;90602.69;;;13.66;78.40
70046;BME280;57385;41.832;23.494;2022-11-20T00:05:35;90608.63;;;13.66;77.67
70046;BME280;57385;41.832;23.494;2022-11-20T00:06:16;90615.84;;;13.64;78.15
70046;BME280;57385;41.832;23.494;2022-11-20T00:06:55;90627.16;;;13.63;78.19
70046;BME280;57385;41.832;23.494;2022-11-20T00:07:33;90634.13;;;13.62;78.26
70046;BME280;57385;41.832;23.494;2022-11-20T00:08:11;90630.00;;;13.61;78.51
70046;BME280;57385;41.832;23.494;2022-11-20T00:08:49;90632.06;;;13.59;78.02
70046;BME280;57385;41.832;23.494;2022-11-20T00:09:27;90635.16;;;13.61;77.06
70046;BME280;57385;41.832;23.494;2022-11-20T00:10:05;90631.03;;;13.60;77.24
70046;BME280;57385;41.832;23.494;2022-11-20T00:10:44;90633.84;;;13.59;77.24
70046;BME280;57385;41.832;23.494;2022-11-20T00:11:23;90628.72;;;13.59;77.50
70046;BME280;57385;41.832;23.494;2022-11-20T00:12:02;90631.81;;;13.61;77.83
70046;BME280;57385;41.832;23.494;2022-11-20T00:12:40;90635.69;;;13.63;77.86
70046;BME280;57385;41.832;23.494;2022-11-20T00:13:18;90622.78;;;13.63;78.09
70046;BME280;57385;41.832;23.494;2022-11-20T00:13:59;90635.16;;;13.67;77.86
70046;BME280;57385;41.832;23.494;2022-11-20T00:14:37;90636.72;;;13.68;77.75
70046;BME280;57385;41.832;23.494;2022-11-20T00:15:16;90640.06;;;13.68;77.68
70046;BME280;57385;41.832;23.494;2022-11-20T00:15:58;90636.25;;;13.71;77.68
70046;BME280;57385;41.832;23.494;2022-11-20T00:16:36;90629.00;;;13.68;77.70
70046;BME280;57385;41.832;23.494;2022-11-20T00:17:14;90624.88;;;13.67;77.73
70046;BME280;57385;41.832;23.494;2022-11-20T00:17:51;90626.16;;;13.69;78.00
70046;BME280;57385;41.832;23.494;2022-11-20T00:18:30;90623.84;;;13.68;77.98
70046;BME280;57385;41.832;23.494;2022-11-20T00:19:09;90630.00;;;13.67;78.10
70046;BME280;57385;41.832;23.494;2022-11-20T00:19:47;90620.75;;;13.66;78.33
70046;BME280;57385;41.832;23.494;2022-11-20T00:20:25;90630.28;;;13.65;77.83
70046;BME280;57385;41.832;23.494;2022-11-20T00:21:07;90624.88;;;13.67;77.99
70046;BME280;57385;41.832;23.494;2022-11-20T00:21:45;90617.63;;;13.63;77.85
70046;BME280;57385;41.832;23.494;2022-11-20T00:22:23;90616.63;;;13.64;77.93
70046;BME280;57385;41.832;23.494;2022-11-20T00:23:01;90616.09;;;13.62;77.84
70046;BME280;57385;41.832;23.494;2022-11-20T00:23:39;90620.22;;;13.63;77.88
70046;BME280;57385;41.832;23.494;2022-11-20T00:24:17;90621.75;;;13.64;77.65
70046;BME280;57385;41.832;23.494;2022-11-20T00:24:55;90628.19;;;13.62;77.92
70046;BME280;57385;41.832;23.494;2022-11-20T00:25:34;90627.44;;;13.61;78.16
70046;BME280;57385;41.832;23.494;2022-11-20T00:26:14;90624.59;;;13.63;77.68
70046;BME280;57385;41.832;23.494;2022-11-20T00:26:52;90627.44;;;13.61;77.94
70046;BME280;57385;41.832;23.494;2022-11-20T00:27:30;90623.81;;;13.57;78.00
70046;BME280;57385;41.832;23.494;2022-11-20T00:28:08;90616.59;;;13.59;77.71
70046;BME280;57385;41.832;23.494;2022-11-20T00:28:54;90619.66;;;13.56;77.56
70046;BME280;57385;41.832;23.494;2022-11-20T00:29:33;90618.88;;;13.56;77.80
70046;BME280;57385;41.832;23.494;2022-11-20T00:30:11;90618.88;;;13.56;77.83
70046;BME280;57385;41.832;23.494;2022-11-20T00:30:48;90612.19;;;13.55;78.04
70046;BME280;57385;41.832;23.494;2022-11-20T00:31:27;90603.94;;;13.53;78.31
70046;BME280;57385;41.832;23.494;2022-11-20T00:32:05;90605.22;;;13.50;78.44
70046;BME280;57385;41.832;23.494;2022-11-20T00:32:43;90608.03;;;13.49;78.50
70046;BME280;57385;41.832;23.494;2022-11-20T00:33:21;90605.72;;;13.47;78.63
70046;BME280;57385;41.832;23.494;2022-11-20T00:33:59;90605.97;;;13.46;78.43
70046;BME280;57385;41.832;23.494;2022-11-20T00:34:37;90597.72;;;13.44;78.68
70046;BME280;57385;41.832;23.494;2022-11-20T00:35:15;90595.38;;;13.42;78.76
70046;BME280;57385;41.832;23.494;2022-11-20T00:35:53;90592.00;;;13.42;78.65
70046;BME280;57385;41.832;23.494;2022-11-20T00:36:33;90594.06;;;13.40;78.88
70046;BME280;57385;41.832;23.494;2022-11-20T00:37:11;90595.09;;;13.39;78.71
70046;BME280;57385;41.832;23.494;2022-11-20T00:37:49;90588.91;;;13.40;78.11
70046;BME280;57385;41.832;23.494;2022-11-20T00:38:27;90594.06;;;13.40;78.22
70046;BME280;57385;41.832;23.494;2022-11-20T00:39:05;90588.16;;;13.39;77.70
70046;BME280;57385;41.832;23.494;2022-11-20T00:39:43;90585.03;;;13.37;77.75
70046;BME280;57385;41.832;23.494;2022-11-20T00:40:21;90587.88;;;13.41;77.84
70046;BME280;57385;41.832;23.494;2022-11-20T00:41:02;90585.56;;;13.39;76.99
70046;BME280;57385;41.832;23.494;2022-11-20T00:41:40;90582.22;;;13.39;77.25
70046;BME280;57385;41.832;23.494;2022-11-20T00:42:17;90580.94;;;13.36;77.66
70046;BME280;57385;41.832;23.494;2022-11-20T00:42:55;90581.44;;;13.33;78.27
70046;BME280;57385;41.832;23.494;2022-11-20T00:43:33;90582.47;;;13.32;77.94
70046;BME280;57385;41.832;23.494;2022-11-20T00:44:11;90580.91;;;13.31;78.11
70046;BME280;57385;41.832;23.494;2022-11-20T00:44:49;90577.78;;;13.29;78.73
70046;BME280;57385;41.832;23.494;2022-11-20T00:45:27;90578.84;;;13.33;77.17
70046;BME280;57385;41.832;23.494;2022-11-20T00:46:08;90577.31;;;13.37;76.20
70046;BME280;57385;41.832;23.494;2022-11-20T00:46:46;90586.59;;;13.38;76.87
70046;BME280;57385;41.832;23.494;2022-11-20T00:47:24;90592.00;;;13.37;77.08
70046;BME280;57385;41.832;23.494;2022-11-20T00:48:02;90595.84;;;13.34;77.60
70046;BME280;57385;41.832;23.494;2022-11-20T00:48:40;90596.38;;;13.31;77.49
70046;BME280;57385;41.832;23.494;2022-11-20T00:49:18;90605.88;;;13.30;77.60
70046;BME280;57385;41.832;23.494;2022-11-20T00:49:56;90602.53;;;13.30;77.71
70046;BME280;57385;41.832;23.494;2022-11-20T00:50:34;90602.53;;;13.30;74.57
70046;BME280;57385;41.832;23.494;2022-11-20T00:51:20;90596.19;;;13.48;72.11
70046;BME280;57385;41.832;23.494;2022-11-20T00:51:58;90607.81;;;13.55;72.08
70046;BME280;57385;41.832;23.494;2022-11-20T00:52:36;90616.81;;;13.53;72.63
70046;BME280;57385;41.832;23.494;2022-11-20T00:53:14;90606.22;;;13.49;73.00
70046;BME280;57385;41.832;23.494;2022-11-20T00:53:55;90607.81;;;13.55;72.12
70046;BME280;57385;41.832;23.494;2022-11-20T00:54:33;90609.66;;;13.70;70.19
70046;BME280;57385;41.832;23.494;2022-11-20T00:55:11;90603.00;;;13.74;70.87
70046;BME280;57385;41.832;23.494;2022-11-20T00:56:01;90602.19;;;13.69;71.70
70046;BME280;57385;41.832;23.494;2022-11-20T00:56:39;90593.69;;;13.68;72.61
70046;BME280;57385;41.832;23.494;2022-11-20T00:57:17;90588.28;;;13.64;73.06
70046;BME280;57385;41.832;23.494;2022-11-20T00:57:55;90597.03;;;13.69;73.02
70046;BME280;57385;41.832;23.494;2022-11-20T00:58:37;90600.13;;;13.66;73.50
70046;BME280;57385;41.832;23.494;2022-11-20T00:59:15;90601.94;;;13.65;73.99
70046;BME280;57385;41.832;23.494;2022-11-20T00:59:53;90589.56;;;13.62;74.13
70046;BME280;57385;41.832;23.494;2022-11-20T01:00:31;90581.31;;;13.60;73.95
70046;BME280;57385;41.832;23.494;2022-11-20T01:01:23;90585.94;;;13.63;71.21
70046;BME280;57385;41.832;23.494;2022-11-20T01:02:01;90578.22;;;13.63;72.26
70046;BME280;57385;41.832;23.494;2022-11-20T01:02:39;90577.19;;;13.59;72.50
70046;BME280;57385;41.832;23.494;2022-11-20T01:03:18;90570.50;;;13.68;68.98
70046;BME280;57385;41.832;23.494;2022-11-20T01:03:58;90576.94;;;13.66;70.52
70046;BME280;57385;41.832;23.494;2022-11-20T01:04:37;90569.47;;;13.64;72.18
70046;BME280;57385;41.832;23.494;2022-11-20T01:05:15;90576.25;;;13.85;66.85
70046;BME280;57385;41.832;23.494;2022-11-20T01:05:52;90581.72;;;14.04;66.21
70046;BME280;57385;41.832;23.494;2022-11-20T01:06:33;90587.38;;;14.06;65.73
70046;BME280;57385;41.832;23.494;2022-11-20T01:07:11;90581.44;;;14.01;66.83
70046;BME280;57385;41.832;23.494;2022-11-20T01:07:49;90588.66;;;13.99;67.25
70046;BME280;57385;41.832;23.494;2022-11-20T01:08:35;90601.03;;;14.02;65.76
70046;BME280;57385;41.832;23.494;2022-11-20T01:09:14;90584.03;;;14.06;65.40
70046;BME280;57385;41.832;23.494;2022-11-20T01:09:52;90588.19;;;14.17;65.48
70046;BME280;57385;41.832;23.494;2022-11-20T01:10:30;90578.34;;;14.09;67.21
70046;BME280;57385;41.832;23.494;2022-11-20T01:11:19;90583.53;;;14.14;65.49
70046;BME280;57385;41.832;23.494;2022-11-20T01:11:57;90588.19;;;14.17;65.31
70046;BME280;57385;41.832;23.494;2022-11-20T01:12:36;90584.53;;;14.08;69.31
70046;BME280;57385;41.832;23.494;2022-11-20T01:13:14;90580.69;;;14.05;67.69
70046;BME280;57385;41.832;23.494;2022-11-20T01:13:53;90583.00;;;14.02;68.32
70046;BME280;57385;41.832;23.494;2022-11-20T01:14:31;90585.31;;;14.08;66.02
70046;BME280;57385;41.832;23.494;2022-11-20T01:15:09;90585.59;;;14.22;65.16
70046;BME280;57385;41.832;23.494;2022-11-20T01:15:47;90591.53;;;14.22;65.77
70046;BME280;57385;41.832;23.494;2022-11-20T01:16:33;90597.72;;;14.21;66.31
70046;BME280;57385;41.832;23.494;2022-11-20T01:17:12;90602.09;;;14.16;67.40
70046;BME280;57385;41.832;23.494;2022-11-20T01:17:50;90592.09;;;14.30;64.97
70046;BME280;57385;41.832;23.494;2022-11-20T01:18:28;90592.88;;;14.40;63.92
70046;BME280;57385;41.832;23.494;2022-11-20T01:19:10;90589.28;;;14.46;66.52
70046;BME280;57385;41.832;23.494;2022-11-20T01:19:49;90576.63;;;14.40;67.27
70046;BME280;57385;41.832;23.494;2022-11-20T01:20:27;90582.53;;;14.35;68.21
70046;BME280;57385;41.832;23.494;2022-11-20T01:21:08;90583.56;;;14.29;69.49
70046;BME280;57385;41.832;23.494;2022-11-20T01:21:50;90577.09;;;14.21;70.53
70046;BME280;57385;41.832;23.494;2022-11-20T01:22:28;90574.53;;;14.16;71.15
70046;BME280;57385;41.832;23.494;2022-11-20T01:23:06;90567.78;;;14.10;71.75
70046;BME280;57385;41.832;23.494;2022-11-20T01:23:44;90586.34;;;14.07;72.17
70046;BME280;57385;41.832;23.494;2022-11-20T01:24:23;90575.25;;;14.07;70.83
70046;BME280;57385;41.832;23.494;2022-11-20T01:25:01;90597.69;;;14.06;71.28
70046;BME280;57385;41.832;23.494;2022-11-20T01:25:39;90577.06;;;14.06;71.63
70046;BME280;57385;41.832;23.494;2022-11-20T01:26:19;90587.63;;;14.00;72.38
70046;BME280;57385;41.832;23.494;2022-11-20T01:26:57;90568.28;;;13.97;71.88
70046;BME280;57385;41.832;23.494;2022-11-20T01:27:35;90578.88;;;14.01;70.90
70046;BME280;57385;41.832;23.494;2022-11-20T01:28:13;90580.94;;;14.09;68.85
70046;BME280;57385;41.832;23.494;2022-11-20T01:28:52;90573.97;;;14.04;71.38
70046;BME280;57385;41.832;23.494;2022-11-20T01:29:30;90563.41;;;14.11;67.07
70046;BME280;57385;41.832;23.494;2022-11-20T01:30:09;90568.31;;;14.22;67.20
70046;BME280;57385;41.832;23.494;2022-11-20T01:30:47;90561.38;;;14.13;70.74
70046;BME280;57385;41.832;23.494;2022-11-20T01:31:33;90566.25;;;14.04;72.02
70046;BME280;57385;41.832;23.494;2022-11-20T01:32:11;90560.31;;;13.99;72.76
70046;BME280;57385;41.832;23.494;2022-11-20T01:32:49;90551.53;;;14.00;71.55
70046;BME280;57385;41.832;23.494;2022-11-20T01:33:27;90550.78;;;13.99;72.09
70046;BME280;57385;41.832;23.494;2022-11-20T01:34:09;90555.16;;;13.99;71.93
70046;BME280;57385;41.832;23.494;2022-11-20T01:34:47;90565.44;;;13.93;72.38
70046;BME280;57385;41.832;23.494;2022-11-20T01:35:26;90564.13;;;13.91;72.60
70046;BME280;57385;41.832;23.494;2022-11-20T01:36:06;90554.84;;;13.90;72.83
70046;BME280;57385;41.832;23.494;2022-11-20T01:36:44;90556.91;;;13.88;72.75
70046;BME280;57385;41.832;23.494;2022-11-20T01:37:22;90564.66;;;13.88;71.51
70046;BME280;57385;41.832;23.494;2022-11-20T01:38:01;90556.91;;;13.93;68.55
70046;BME280;57385;41.832;23.494;2022-11-20T01:38:39;90553.34;;;14.09;67.16
70046;BME280;57385;41.832;23.494;2022-11-20T01:39:25;90549.22;;;14.08;67.94
70046;BME280;57385;41.832;23.494;2022-11-20T01:40:04;90552.81;;;14.07;69.26
70046;BME280;57385;41.832;23.494;2022-11-20T01:40:42;90550.00;;;14.04;69.55
70046;BME280;57385;41.832;23.494;2022-11-20T01:41:20;90547.94;;;14.01;69.63
70046;BME280;57385;41.832;23.494;2022-11-20T01:41:59;90540.69;;;13.98;70.28
70046;BME280;57385;41.832;23.494;2022-11-20T01:42:37;90544.56;;;13.95;69.61
70046;BME280;57385;41.832;23.494;2022-11-20T01:43:20;90545.06;;;13.92;70.19
70046;BME280;57385;41.832;23.494;2022-11-20T01:43:59;90549.19;;;13.93;70.11
70046;BME280;57385;41.832;23.494;2022-11-20T01:46:24;90538.31;;;13.81;72.62
70046;BME280;57385;41.832;23.494;2022-11-20T01:47:05;90534.47;;;13.73;73.40
70046;BME280;57385;41.832;23.494;2022-11-20T01:47:45;90534.41;;;13.68;73.55
70046;BME280;57385;41.832;23.494;2022-11-20T01:48:26;90532.34;;;13.65;74.04
70046;BME280;57385;41.832;23.494;2022-11-20T01:50:24;90530.56;;;13.60;74.12
70046;BME280;57385;41.832;23.494;2022-11-20T01:51:07;90532.06;;;13.56;74.17
70046;BME280;57385;41.832;23.494;2022-11-20T01:51:56;90536.69;;;13.54;74.30
70046;BME280;57385;41.832;23.494;2022-11-20T01:52:48;90531.28;;;13.51;74.30
70046;BME280;57385;41.832;23.494;2022-11-20T01:53:31;90519.69;;;13.48;74.22
70046;BME280;57385;41.832;23.494;2022-11-20T01:54:18;90524.56;;;13.45;74.24
70046;BME280;57385;41.832;23.494;2022-11-20T01:55:02;90525.31;;;13.40;75.12
70046;BME280;57385;41.832;23.494;2022-11-20T01:55:50;90517.56;;;13.40;75.16
70046;BME280;57385;41.832;23.494;2022-11-20T01:56:33;90517.06;;;13.38;75.39
70046;BME280;57385;41.832;23.494;2022-11-20T01:57:15;90525.28;;;13.35;75.51
70046;BME280;57385;41.832;23.494;2022-11-20T01:57:55;90519.38;;;13.34;75.41
70046;BME280;57385;41.832;23.494;2022-11-20T01:58:35;90511.13;;;13.32;75.67
70046;BME280;57385;41.832;23.494;2022-11-20T01:59:18;90521.69;;;13.31;76.11
70046;BME280;57385;41.832;23.494;2022-11-20T02:00:02;90521.94;;;13.29;75.85
70046;BME280;57385;41.832;23.494;2022-11-20T02:00:50;90524.50;;;13.29;75.83
70046;BME280;57385;41.832;23.494;2022-11-20T02:01:28;90526.06;;;13.30;75.45
70046;BME280;57385;41.832;23.494;2022-11-20T02:02:06;90521.13;;;13.29;76.03
70046;BME280;57385;41.832;23.494;2022-11-20T02:02:51;90521.38;;;13.27;75.91
70046;BME280;57385;41.832;23.494;2022-11-20T02:03:31;90519.09;;;13.31;73.37
70046;BME280;57385;41.832;23.494;2022-11-20T02:04:09;90519.88;;;13.31;74.53
70046;BME280;57385;41.832;23.494;2022-11-20T02:04:51;90520.66;;;13.32;74.18
70046;BME280;57385;41.832;23.494;2022-11-20T02:06:47;90516.78;;;13.29;74.93
70046;BME280;57385;41.832;23.494;2022-11-20T02:07:27;90521.13;;;13.29;74.46
70046;BME280;57385;41.832;23.494;2022-11-20T02:08:06;90524.72;;;13.28;74.48
70046;BME280;57385;41.832;23.494;2022-11-20T02:08:44;90519.09;;;13.31;74.41
70046;BME280;57385;41.832;23.494;2022-11-20T02:09:22;90524.50;;;13.29;75.08
70046;BME280;57385;41.832;23.494;2022-11-20T02:10:00;90520.34;;;13.28;74.73
70046;BME280;57385;41.832;23.494;2022-11-20T02:10:39;90517.00;;;13.28;74.65
70046;BME280;57385;41.832;23.494;2022-11-20T02:11:17;90506.72;;;13.28;74.88
70046;BME280;57385;41.832;23.494;2022-11-20T02:11:55;90514.44;;;13.28;75.05
70046;BME280;57385;41.832;23.494;2022-11-20T02:12:33;90504.13;;;13.28;75.04
70046;BME280;57385;41.832;23.494;2022-11-20T02:13:11;90494.84;;;13.27;75.11
70046;BME280;57385;41.832;23.494;2022-11-20T02:13:50;90484.56;;;13.27;75.25
70046;BME280;57385;41.832;23.494;2022-11-20T02:14:28;90502.59;;;13.27;75.80
70046;BME280;57385;41.832;23.494;2022-11-20T02:15:06;90511.34;;;13.26;75.58
70046;BME280;57385;41.832;23.494;2022-11-20T02:15:45;90510.56;;;13.25;75.51
70046;BME280;57385;41.832;23.494;2022-11-20T02:16:44;90510.81;;;13.24;75.94
70046;BME280;57385;41.832;23.494;2022-11-20T02:17:24;90515.44;;;13.22;75.83
70046;BME280;57385;41.832;23.494;2022-11-20T02:18:02;90506.94;;;13.21;75.14
70046;BME280;57385;41.832;23.494;2022-11-20T02:18:42;90505.97;;;13.32;72.02
70046;BME280;57385;41.832;23.494;2022-11-20T02:19:24;90513.19;;;13.36;72.29
70046;BME280;57385;41.832;23.494;2022-11-20T02:20:04;90520.41;;;13.33;73.10
70046;BME280;57385;41.832;23.494;2022-11-20T02:20:44;90509.56;;;13.31;73.02
70046;BME280;57385;41.832;23.494;2022-11-20T02:22:28;90519.63;;;13.33;72.89
70046;BME280;57385;41.832;23.494;2022-11-20T02:23:14;90513.44;;;13.34;73.25
70046;BME280;57385;41.832;23.494;2022-11-20T02:24:01;90511.91;;;13.33;74.21
70046;BME280;57385;41.832;23.494;2022-11-20T02:24:40;90496.44;;;13.33;74.34
70046;BME280;57385;41.832;23.494;2022-11-20T02:25:19;90493.09;;;13.32;74.28
70046;BME280;57385;41.832;23.494;2022-11-20T02:26:02;90495.16;;;13.36;73.29
70046;BME280;57385;41.832;23.494;2022-11-20T02:27:02;90498.00;;;13.34;73.69
70046;BME280;57385;41.832;23.494;2022-11-20T02:27:41;90494.91;;;13.32;73.70
70046;BME280;57385;41.832;23.494;2022-11-20T02:28:19;90493.88;;;13.33;73.65
70046;BME280;57385;41.832;23.494;2022-11-20T02:28:58;90493.63;;;13.40;73.20
70046;BME280;57385;41.832;23.494;2022-11-20T02:29:39;90492.59;;;13.41;73.26
70046;BME280;57385;41.832;23.494;2022-11-20T02:30:18;90496.19;;;13.40;73.33
70046;BME280;57385;41.832;23.494;2022-11-20T02:30:57;90500.84;;;13.43;73.17
70046;BME280;57385;41.832;23.494;2022-11-20T02:31:37;90501.38;;;13.45;73.43
70046;BME280;57385;41.832;23.494;2022-11-20T02:32:28;90500.84;;;13.43;73.85
70046;BME280;57385;41.832;23.494;2022-11-20T02:33:06;90501.88;;;13.42;74.07
70046;BME280;57385;41.832;23.494;2022-11-20T02:33:44;90504.69;;;13.40;74.15
70046;BME280;57385;41.832;23.494;2022-11-20T02:34:22;90498.78;;;13.40;74.14
70046;BME280;57385;41.832;23.494;2022-11-20T02:35:37;90496.97;;;13.35;74.74
70046;BME280;57385;41.832;23.494;2022-11-20T02:36:11;90493.88;;;13.33;75.27
70046;BME280;57385;41.832;23.494;2022-11-20T02:36:50;90486.16;;;13.38;74.89
70046;BME280;57385;41.832;23.494;2022-11-20T02:37:32;90482.81;;;13.38;75.03
70046;BME280;57385;41.832;23.494;2022-11-20T02:38:10;90489.25;;;13.35;75.64
70046;BME280;57385;41.832;23.494;2022-11-20T02:38:49;90495.69;;;13.32;75.55
70046;BME280;57385;41.832;23.494;2022-11-20T02:39:28;90495.69;;;13.32;75.75
70046;BME280;57385;41.832;23.494;2022-11-20T02:40:06;90487.94;;;13.32;75.32
70046;BME280;57385;41.832;23.494;2022-11-20T02:40:44;90488.72;;;13.33;75.00
70046;BME280;57385;41.832;23.494;2022-11-20T02:41:31;90497.97;;;13.29;75.64
70046;BME280;57385;41.832;23.494;2022-11-20T02:42:09;90493.34;;;13.31;75.50
70046;BME280;57385;41.832;23.494;2022-11-20T02:42:47;90481.00;;;13.33;74.90
70046;BME280;57385;41.832;23.494;2022-11-20T02:43:25;90477.41;;;13.34;74.59
70046;BME280;57385;41.832;23.494;2022-11-20T02:44:04;90476.34;;;13.30;75.38
70046;BME280;57385;41.832;23.494;2022-11-20T02:44:42;90477.13;;;13.30;76.14
70046;BME280;57385;41.832;23.494;2022-11-20T02:45:21;90480.22;;;13.32;75.98
70046;BME280;57385;41.832;23.494;2022-11-20T02:45:59;90487.19;;;13.32;75.75
70046;BME280;57385;41.832;23.494;2022-11-20T02:46:37;90489.50;;;13.33;75.46
70046;BME280;57385;41.832;23.494;2022-11-20T02:47:14;90501.34;;;13.34;75.68
70046;BME280;57385;41.832;23.494;2022-11-20T02:47:53;90506.25;;;13.36;75.68
70046;BME280;57385;41.832;23.494;2022-11-20T02:48:30;90505.97;;;13.32;75.93
70046;BME280;57385;41.832;23.494;2022-11-20T02:49:08;90503.91;;;13.29;76.24
70046;BME280;57385;41.832;23.494;2022-11-20T02:49:46;90506.72;;;13.28;76.10
70046;BME280;57385;41.832;23.494;2022-11-20T02:50:24;90498.97;;;13.28;75.85
70046;BME280;57385;41.832;23.494;2022-11-20T02:51:02;90492.28;;;13.27;76.15
70046;BME280;57385;41.832;23.494;2022-11-20T02:51:40;90488.16;;;13.26;76.83
70046;BME280;57385;41.832;23.494;2022-11-20T02:52:18;90501.28;;;13.24;76.74
70046;BME280;57385;41.832;23.494;2022-11-20T02:52:56;90489.69;;;13.22;77.13
70046;BME280;57385;41.832;23.494;2022-11-20T02:53:34;90495.63;;;13.22;77.13
70046;BME280;57385;41.832;23.494;2022-11-20T02:54:12;90507.47;;;13.23;77.14
70046;BME280;57385;41.832;23.494;2022-11-20T02:54:49;90494.34;;;13.25;76.94
70046;BME280;57385;41.832;23.494;2022-11-20T02:55:28;90494.59;;;13.23;77.57
70046;BME280;57385;41.832;23.494;2022-11-20T02:56:06;90506.69;;;13.23;77.86
70046;BME280;57385;41.832;23.494;2022-11-20T02:56:44;90504.63;;;13.20;77.81
70046;BME280;57385;41.832;23.494;2022-11-20T02:57:21;90502.53;;;13.17;78.24
70046;BME280;57385;41.832;23.494;2022-11-20T02:57:59;90502.25;;;13.13;78.08
70046;BME280;57385;41.832;23.494;2022-11-20T02:58:37;90503.00;;;13.14;78.07
70046;BME280;57385;41.832;23.494;2022-11-20T02:59:15;90501.47;;;13.13;78.26
70046;BME280;57385;41.832;23.494;2022-11-20T02:59:53;90505.31;;;13.10;78.38
70046;BME280;57385;41.832;23.494;2022-11-20T03:00:31;90498.38;;;13.11;78.67
70046;BME280;57385;41.832;23.494;2022-11-20T03:01:09;90499.41;;;13.10;78.74
70046;BME280;57385;41.832;23.494;2022-11-20T03:01:47;90507.13;;;13.10;78.31
70046;BME280;57385;41.832;23.494;2022-11-20T03:02:25;90493.72;;;13.08;78.70
70046;BME280;57385;41.832;23.494;2022-11-20T03:03:03;90492.69;;;13.09;79.10
70046;BME280;57385;41.832;23.494;2022-11-20T03:03:41;90510.44;;;13.05;79.06
70046;BME280;57385;41.832;23.494;2022-11-20T03:04:19;90506.59;;;13.02;79.27
70046;BME280;57385;41.832;23.494;2022-11-20T03:04:57;90506.59;;;13.02;79.25
70046;BME280;57385;41.832;23.494;2022-11-20T03:05:35;90505.25;;;13.00;79.73
70046;BME280;57385;41.832;23.494;2022-11-20T03:06:13;90511.44;;;12.99;79.70
70046;BME280;57385;41.832;23.494;2022-11-20T03:06:51;90516.06;;;12.97;79.78
70046;BME280;57385;41.832;23.494;2022-11-20T03:07:28;90514.75;;;12.94;80.22
70046;BME280;57385;41.832;23.494;2022-11-20T03:08:07;90504.47;;;12.94;80.29
70046;BME280;57385;41.832;23.494;2022-11-20T03:08:44;90504.19;;;12.91;80.59
70046;BME280;57385;41.832;23.494;2022-11-20T03:09:22;90500.31;;;12.88;80.79
70046;BME280;57385;41.832;23.494;2022-11-20T03:10:00;90507.25;;;12.88;80.85
70046;BME280;57385;41.832;23.494;2022-11-20T03:10:38;90499.53;;;12.88;80.97
70046;BME280;57385;41.832;23.494;2022-11-20T03:11:16;90490.50;;;12.85;80.43
70046;BME280;57385;41.832;23.494;2022-11-20T03:11:54;90487.41;;;12.83;81.33
70046;BME280;57385;41.832;23.494;2022-11-20T03:12:32;90493.34;;;12.84;81.13
70046;BME280;57385;41.832;23.494;2022-11-20T03:13:10;90489.75;;;12.85;81.10
70046;BME280;57385;41.832;23.494;2022-11-20T03:13:48;90483.81;;;12.84;81.03
70046;BME280;57385;41.832;23.494;2022-11-20T03:14:26;90495.66;;;12.85;81.21
70046;BME280;57385;41.832;23.494;2022-11-20T03:15:04;90495.13;;;12.83;81.24
70046;BME280;57385;41.832;23.494;2022-11-20T03:15:43;90497.72;;;12.83;81.36
70046;BME280;57385;41.832;23.494;2022-11-20T03:16:22;90498.47;;;12.84;81.25
70046;BME280;57385;41.832;23.494;2022-11-20T03:17:00;90509.03;;;12.82;81.28
70046;BME280;57385;41.832;23.494;2022-11-20T03:17:38;90511.06;;;12.80;81.25
70046;BME280;57385;41.832;23.494;2022-11-20T03:18:16;90502.84;;;12.83;80.95
70046;BME280;57385;41.832;23.494;2022-11-20T03:18:54;90520.88;;;12.83;81.09
70046;BME280;57385;41.832;23.494;2022-11-20T03:19:33;90517.03;;;12.86;81.00
70046;BME280;57385;41.832;23.494;2022-11-20T03:20:11;90511.09;;;12.85;81.10
70046;BME280;57385;41.832;23.494;2022-11-20T03:20:49;90513.16;;;12.83;81.11
70046;BME280;57385;41.832;23.494;2022-11-20T03:21:27;90502.09;;;12.83;81.35
70046;BME280;57385;41.832;23.494;2022-11-20T03:22:05;90508.00;;;12.83;81.27
70046;BME280;57385;41.832;23.494;2022-11-20T03:22:43;90512.63;;;12.81;81.45
70046;BME280;57385;41.832;23.494;2022-11-20T03:23:21;90508.50;;;12.80;81.42
70046;BME280;57385;41.832;23.494;2022-11-20T03:23:59;90505.94;;;12.80;81.14
70046;BME280;57385;41.832;23.494;2022-11-20T03:24:37;90515.19;;;12.81;81.09
70046;BME280;57385;41.832;23.494;2022-11-20T03:25:15;90514.94;;;12.83;81.14
70046;BME280;57385;41.832;23.494;2022-11-20T03:25:53;90522.41;;;12.84;80.81
70046;BME280;57385;41.832;23.494;2022-11-20T03:26:31;90523.97;;;12.85;80.70
70046;BME280;57385;41.832;23.494;2022-11-20T03:27:09;90531.16;;;12.83;80.71
70046;BME280;57385;41.832;23.494;2022-11-20T03:27:47;90527.31;;;12.86;80.46
70046;BME280;57385;41.832;23.494;2022-11-20T03:28:25;90529.63;;;12.87;80.51
70046;BME280;57385;41.832;23.494;2022-11-20T03:29:04;90524.00;;;12.90;80.45
70046;BME280;57385;41.832;23.494;2022-11-20T03:29:42;90519.91;;;12.89;80.57
70046;BME280;57385;41.832;23.494;2022-11-20T03:30:20;90518.31;;;12.88;80.69
70046;BME280;57385;41.832;23.494;2022-11-20T03:31:05;90520.88;;;12.88;80.86
70046;BME280;57385;41.832;23.494;2022-11-20T03:31:43;90527.09;;;12.92;80.77
70046;BME280;57385;41.832;23.494;2022-11-20T03:32:21;90526.84;;;12.94;80.52